WetterOnline ( http://www.wetteronline.de )

Wetter aktuell Straubing

Aktuelles Wetter: Straubing (360m)

6-stündlich | Neueste Meldungen
Ortszeit Temperatur Wetter
Do, 21.06. 14:00 29.3° C leicht bewölkt
Do, 21.06. 8:00 19.1° C wolkenlos
Do, 21.06. 2:00 15.0° C fast wolkenlos
Mi, 20.06. 20:00 26.4° C wolkenlos
Mi, 20.06. 14:00 25.8° C wolkig
Mi, 20.06. 8:00 20.9° C leicht bewölkt
Mi, 20.06. 2:00 18.7° C bedeckt
Di, 19.06. 20:00 23.5° C bewölkt
Ortszeit Temperatur Wetter
Do, 21.06. 16:00 26.7° C wolkig
Do, 21.06. 15:50 26.7° C wolkig
Do, 21.06. 15:40 27.4° C bewölkt
Do, 21.06. 15:30 27.9° C bewölkt
Do, 21.06. 15:20 27.9° C bewölkt
Do, 21.06. 15:10 28.1° C bewölkt
Do, 21.06. 15:00 28.4° C wolkig
Do, 21.06. 14:30 26.9° C bewölkt
Do, 21.06. 14:00 29.3° C leicht bewölkt
Do, 21.06. 13:30 28.7° C wolkenlos
Do, 21.06. 13:00 28.3° C leicht bewölkt
Ortszeit Relative Feuchte Sichtweite
Do, 21.06. 14:00 41% 8 km
Do, 21.06. 8:00 77% 14 km
Do, 21.06. 2:00 92% 17 km
Mi, 20.06. 20:00 42% 70 km
Mi, 20.06. 14:00 44% 45 km
Mi, 20.06. 8:00 74% 14 km
Mi, 20.06. 2:00 87% 29 km
Di, 19.06. 20:00 55% 70 km
Ortszeit Relative Feuchte Sichtweite
Do, 21.06. 16:00 44% 17 km
Do, 21.06. 15:50 44% -
Do, 21.06. 15:40 42% -
Do, 21.06. 15:30 38% 40 km
Do, 21.06. 15:20 38% -
Do, 21.06. 15:10 37% -
Do, 21.06. 15:00 42% 12 km
Do, 21.06. 14:30 52% 24 km
Do, 21.06. 14:00 41% 8 km
Do, 21.06. 13:30 41% 13 km
Do, 21.06. 13:00 46% 14 km
Ortszeit Niederschlagsmenge Niederschlagsart
Do, 21.06. 14:00 0.1 l/m2 in 6 Std. Niederschlag
Do, 21.06. 8:00 0.0 l/m2 in 12 Std. -
Do, 21.06. 2:00 0.0 l/m2 in 6 Std. -
Mi, 20.06. 20:00 0.0 l/m2 in 12 Std. -
Mi, 20.06. 14:00 0.0 l/m2 in 6 Std. -
Mi, 20.06. 8:00 0.0 l/m2 in 12 Std. -
Mi, 20.06. 2:00 0.0 l/m2 in 6 Std. -
Di, 19.06. 20:00 0.0 l/m2 in 12 Std. -
Ortszeit Niederschlagsmenge Niederschlagsart
Do, 21.06. 16:00 0.0 l/m2 in 1 Std. -
Do, 21.06. 15:50 keine Meldung -
Do, 21.06. 15:40 keine Meldung -
Do, 21.06. 15:30 0.0 l/m2 in 1 Std. -
Do, 21.06. 15:20 keine Meldung -
Do, 21.06. 15:10 keine Meldung -
Do, 21.06. 15:00 0.1 l/m2 in 1 Std. Regen
Do, 21.06. 14:30 0.1 l/m2 in 1 Std. Schneeregen
Do, 21.06. 14:00 0.0 l/m2 in 1 Std. Niederschlag
Do, 21.06. 13:30 0.0 l/m2 in 1 Std. -
Do, 21.06. 13:00 0.1 l/m2 in 1 Std. Niederschlag
Ortszeit Stärke Spitze Richtung
km/h Bft. km/h Grad Sektor
Do, 21.06. 14:00 22 4 43 260° W
Do, 21.06. 8:00 6 1 9 80° O
Do, 21.06. 2:00 4 1 11 200° S
Mi, 20.06. 20:00 4 1 22 90° O
Mi, 20.06. 14:00 11 2 25 140° SO
Mi, 20.06. 8:00 9 2 11 110° O
Mi, 20.06. 2:00 7 2 7 80° O
Di, 19.06. 20:00 4 1 22 240° SW
Ortszeit Stärke Spitze Richtung
km/h Bft. km/h Grad Sektor
Do, 21.06. 16:00 22 4 40 310° NW
Do, 21.06. 15:50 22 4 - 310° NW
Do, 21.06. 15:40 18 3 - 300° NW
Do, 21.06. 15:30 17 3 41 280° W
Do, 21.06. 15:20 17 3 - 280° W
Do, 21.06. 15:10 22 4 - 260° W
Do, 21.06. 15:00 24 4 46 260° W
Do, 21.06. 14:30 17 3 46 270° W
Do, 21.06. 14:00 22 4 43 260° W
Do, 21.06. 13:30 22 4 40 260° W
Do, 21.06. 13:00 18 3 32 250° W
Ortszeit Untergrenze Bedeckung Gattung
total tief tief mittel hoch
Do, 21.06. 14:00 1800 m 2/8 - - - -
Do, 21.06. 8:00 2100 m 0/8 0/8 - - -
Do, 21.06. 2:00 2400 m 1/8 1/8 - - -
Mi, 20.06. 20:00 - 0/8 0/8 - - -
Mi, 20.06. 14:00 1800 m 5/8 - - - -
Mi, 20.06. 8:00 2100 m 2/8 2/8 - - -
Mi, 20.06. 2:00 1800 m 8/8 8/8 - - -
Di, 19.06. 20:00 1800 m 7/8 7/8 - - -
Ortszeit Bedeckungsgrad in Achtel und Wolkenuntergrenze
Do, 21.06. 16:00 4(2400m) 7(9000m) 7(9000m)
Do, 21.06. 15:50 4(2400m) 7(9000m) 7(9000m)
Do, 21.06. 15:40 2(2100m) 7(2400m) 8(9000m)
Do, 21.06. 15:30 2(1800m) 7(2400m) 7(3000m)
Do, 21.06. 15:20 2(1800m) 7(2400m) 7(3000m)
Do, 21.06. 15:10 6(2100m) 6(9000m) 7(9000m)
Do, 21.06. 15:00 1(1800m) 7(9000m) 7(10500m)
Do, 21.06. 14:30 3(1800m) 6(2100m) 7(2700m)
Do, 21.06. 14:00 1(1800m) 9 9
Do, 21.06. 13:30 keine Wolken
Do, 21.06. 13:00 1(1800m) 4(2700m)
Ortszeit Luftdruck NN (hPa) Tendenz (hPa in 3 Std.)
Do, 21.06. 14:00 1011 - 1,8
Do, 21.06. 8:00 1016 - 0,2
Do, 21.06. 2:00 1018 - 0,9
Mi, 20.06. 20:00 1017 - 1,2
Mi, 20.06. 14:00 1020 - 1,2
Mi, 20.06. 8:00 1023 0,0
Mi, 20.06. 2:00 1023 0,0
Di, 19.06. 20:00 1022 - 0,3
Ortszeit Luftdruck NN (hPa) Tendenz (hPa in 3 Std.)
Do, 21.06. 16:00 1011 - 0,6
Do, 21.06. 15:50 1011 keine Meldung
Do, 21.06. 15:40 1011 keine Meldung
Do, 21.06. 15:30 1011 - 1,2
Do, 21.06. 15:20 1011 keine Meldung
Do, 21.06. 15:10 1011 keine Meldung
Do, 21.06. 15:00 1011 - 1,4
Do, 21.06. 14:30 1011 - 1,6
Do, 21.06. 14:00 1011 - 1,8
Do, 21.06. 13:30 1011 - 1,6
Do, 21.06. 13:00 1012 - 1,5
Ortszeit Schneehöhe (cm)
Do, 21.06. 14:00 -
Do, 21.06. 8:00 -
Do, 21.06. 2:00 -
Mi, 20.06. 20:00 -
Mi, 20.06. 14:00 -
Mi, 20.06. 8:00 -
Mi, 20.06. 2:00 -
Di, 19.06. 20:00 -
Ortszeit Schneehöhe (cm)
Do, 21.06. 16:00 -
Do, 21.06. 15:50 -
Do, 21.06. 15:40 -
Do, 21.06. 15:30 -
Do, 21.06. 15:20 -
Do, 21.06. 15:10 -
Do, 21.06. 15:00 -
Do, 21.06. 14:30 -
Do, 21.06. 14:00 -
Do, 21.06. 13:30 -
Do, 21.06. 13:00 -
Link zu dieser Seite / Seite empfehlen

Das Wetter in ...